Time;durP1;ratioP1;P1;durP2;ratioP2;P2;SDS_P1;SDS_P2;PMS_P1;PMS_P2;Temp;Humidity;BMP_temperature;BMP_pressure;BME280_temperature;BME280_humidity;BME280_pressure;Samples;Min_cycle;Max_cycle;Signal;HPM_P1;HPM_P2
2022/05/10 00:02:17;;;;;;;4.13;1.13;;;19.10;85.40;;;;;;5073422;28;20398;-70
2022/05/10 00:04:49;;;;;;;10.10;2.08;;;19.30;85.70;;;;;;5073030;28;20085;-70
2022/05/10 00:07:20;;;;;;;1.63;0.85;;;19.60;84.20;;;;;;5071091;28;20037;-70
2022/05/10 00:09:48;;;;;;;8.95;1.50;;;19.80;82.80;;;;;;5068284;28;20029;-69
2022/05/10 00:12:15;;;;;;;3.65;1.42;;;20.10;81.70;;;;;;5066097;28;20482;-70
2022/05/10 00:14:43;;;;;;;6.68;1.80;;;20.20;81.40;;;;;;5071856;28;20025;-70
2022/05/10 00:17:23;;;;;;;5.10;1.60;;;20.40;82.30;;;;;;5072974;28;20025;-70
2022/05/10 00:19:51;;;;;;;4.45;1.70;;;20.90;78.70;;;;;;5073250;28;20020;-70
2022/05/10 00:22:19;;;;;;;7.93;1.55;;;21.00;78.00;;;;;;5065401;28;20363;-70
2022/05/10 00:24:46;;;;;;;6.50;1.50;;;21.10;77.90;;;;;;5066083;28;20437;-69
2022/05/10 00:27:13;;;;;;;9.55;2.50;;;21.10;78.40;;;;;;5070905;28;20032;-70
2022/05/10 00:29:41;;;;;;;5.82;1.75;;;21.40;76.30;;;;;;5066130;28;20103;-70
2022/05/10 00:32:09;;;;;;;8.38;2.05;;;21.40;77.90;;;;;;5070190;28;20025;-70
2022/05/10 00:34:36;;;;;;;8.07;1.60;;;21.70;76.40;;;;;;5071902;28;20031;-70
2022/05/10 00:37:04;;;;;;;8.55;2.47;;;21.80;75.70;;;;;;5067352;28;20025;-70
2022/05/10 00:39:31;;;;;;;9.07;1.98;;;22.20;74.30;;;;;;5062820;28;20032;-71
2022/05/10 00:42:06;;;;;;;6.93;1.45;;;22.40;72.70;;;;;;5071526;28;20035;-71
2022/05/10 00:44:52;;;;;;;9.88;1.77;;;22.30;72.90;;;;;;5066557;28;20053;-69
2022/05/10 00:47:29;;;;;;;5.10;1.88;;;21.90;74.80;;;;;;5060159;28;20367;-69
2022/05/10 00:50:09;;;;;;;9.93;2.10;;;21.70;76.00;;;;;;5072699;28;20029;-69
2022/05/10 00:53:18;;;;;;;6.25;1.70;;;21.50;74.60;;;;;;5071530;28;20102;-70
2022/05/10 00:55:51;;;;;;;7.10;1.58;;;21.10;76.10;;;;;;5052443;28;20033;-69
2022/05/10 00:58:35;;;;;;;8.73;1.75;;;21.40;77.50;;;;;;5072654;28;20020;-69
2022/05/10 01:01:03;;;;;;;5.07;1.30;;;21.40;74.50;;;;;;5071976;28;20017;-70
2022/05/10 01:03:59;;;;;;;5.05;1.42;;;21.60;75.00;;;;;;5058488;28;20435;-71
2022/05/10 01:06:34;;;;;;;8.40;2.38;;;21.90;74.80;;;;;;5072615;28;20025;-70
2022/05/10 01:09:11;;;;;;;5.78;1.30;;;22.00;74.20;;;;;;5072613;28;20386;-70
2022/05/10 01:11:50;;;;;;;7.22;1.55;;;21.90;74.50;;;;;;5071474;28;20082;-69
2022/05/10 01:14:32;;;;;;;5.20;1.42;;;22.00;72.70;;;;;;5069441;28;20032;-70
2022/05/10 01:16:59;;;;;;;8.35;1.70;;;22.00;73.40;;;;;;5059071;28;20081;-69
2022/05/10 01:19:26;;;;;;;8.23;1.60;;;22.10;72.80;;;;;;5060366;28;20021;-70
2022/05/10 01:22:29;;;;;;;18.65;1.85;;;22.30;71.70;;;;;;5058396;28;20078;-70
2022/05/10 01:24:56;;;;;;;8.02;1.35;;;22.60;73.00;;;;;;5071085;28;20044;-69
2022/05/10 01:27:42;;;;;;;8.55;2.03;;;22.90;70.70;;;;;;5071120;28;20226;-70
2022/05/10 01:30:17;;;;;;;8.40;1.52;;;23.00;67.70;;;;;;5072170;28;20115;-70
2022/05/10 01:35:43;;;;;;;5.65;1.80;;;22.90;67.30;;;;;;5067400;28;20075;-70
2022/05/10 01:38:29;;;;;;;11.27;2.08;;;22.30;69.30;;;;;;5071044;28;20068;-70
2022/05/10 01:41:17;;;;;;;10.82;1.77;;;22.40;70.00;;;;;;5071578;28;20020;-69
2022/05/10 01:44:00;;;;;;;7.82;1.80;;;22.40;71.00;;;;;;5062231;28;20024;-70
2022/05/10 01:46:31;;;;;;;7.47;1.63;;;22.70;71.10;;;;;;5072157;28;20028;-69
2022/05/10 01:49:21;;;;;;;4.78;1.30;;;23.10;68.30;;;;;;5072469;28;20074;-70
2022/05/10 01:52:00;;;;;;;9.90;1.83;;;23.90;69.50;;;;;;5064503;28;20040;-70
2022/05/10 01:54:47;;;;;;;9.52;1.40;;;24.30;64.70;;;;;;5071949;28;20050;-69
2022/05/10 01:57:17;;;;;;;9.43;1.47;;;24.30;66.50;;;;;;5072199;28;20025;-70
2022/05/10 01:59:52;;;;;;;8.18;1.20;;;24.20;63.30;;;;;;5058668;28;20032;-69
2022/05/10 02:02:23;;;;;;;5.53;1.20;;;23.90;64.90;;;;;;5060263;28;20402;-70
2022/05/10 02:04:54;;;;;;;12.35;1.55;;;24.60;62.10;;;;;;5071984;28;20025;-70
2022/05/10 02:07:24;;;;;;;8.70;1.30;;;25.10;61.40;;;;;;5071754;28;20032;-70
2022/05/10 02:10:01;;;;;;;7.88;1.20;;;25.10;62.00;;;;;;5065336;28;20395;-71
2022/05/10 02:12:56;;;;;;;11.15;1.42;;;25.80;59.30;;;;;;5064432;28;20063;-71
2022/05/10 02:15:45;;;;;;;8.45;1.08;;;25.70;56.70;;;;;;5071614;28;20028;-71
2022/05/10 02:18:35;;;;;;;6.10;1.38;;;25.50;53.90;;;;;;5071309;28;20025;-71
2022/05/10 02:21:17;;;;;;;6.10;1.17;;;25.40;56.50;;;;;;5054425;28;20052;-71
2022/05/10 02:24:05;;;;;;;5.85;1.10;;;25.30;53.80;;;;;;5063313;28;20043;-71
2022/05/10 02:26:58;;;;;;;8.15;1.45;;;24.10;55.60;;;;;;5067137;28;20108;-72
2022/05/10 02:29:52;;;;;;;7.47;0.88;;;23.40;57.30;;;;;;5072457;28;20111;-71
2022/05/10 02:35:17;;;;;;;6.88;1.52;;;23.50;58.70;;;;;;5069560;28;20079;-70
2022/05/10 02:37:45;;;;;;;9.00;1.20;;;23.10;59.00;;;;;;5074749;28;20554;-71
2022/05/10 02:40:13;;;;;;;10.27;1.52;;;22.60;61.00;;;;;;5070357;28;20078;-70
2022/05/10 02:42:44;;;;;;;5.10;0.90;;;22.40;60.70;;;;;;5074158;28;20024;-70
2022/05/10 02:45:12;;;;;;;11.27;1.38;;;22.40;62.10;;;;;;5061802;28;20017;-70
2022/05/10 02:47:42;;;;;;;9.85;1.75;;;22.40;62.20;;;;;;5074760;28;20067;-70
2022/05/10 02:50:31;;;;;;;9.20;1.27;;;22.50;62.70;;;;;;5070024;28;20087;-71
2022/05/10 02:52:59;;;;;;;8.20;1.38;;;22.70;63.40;;;;;;5067858;28;20031;-71
2022/05/10 02:55:41;;;;;;;9.85;1.45;;;22.80;62.10;;;;;;5074620;28;20036;-71
2022/05/10 02:58:30;;;;;;;6.95;1.13;;;22.70;61.10;;;;;;5074673;28;20534;-72
2022/05/10 03:01:38;;;;;;;10.15;1.58;;;22.70;60.20;;;;;;5065345;28;20029;-71
2022/05/10 03:04:09;;;;;;;5.87;1.60;;;22.50;60.90;;;;;;5043361;28;20032;-72
2022/05/10 03:06:37;;;;;;;14.65;1.60;;;22.30;61.90;;;;;;5074610;28;20074;-71
2022/05/10 03:09:06;;;;;;;10.02;1.63;;;22.10;62.40;;;;;;5064681;28;20171;-72
2022/05/10 03:11:35;;;;;;;11.18;1.25;;;22.20;62.20;;;;;;5069426;28;20033;-71
2022/05/10 03:14:03;;;;;;;12.38;1.95;;;22.20;63.40;;;;;;5070013;28;20028;-71
2022/05/10 03:16:31;;;;;;;7.13;1.33;;;22.20;63.10;;;;;;5065996;28;20479;-71
2022/05/10 03:18:58;;;;;;;11.20;1.50;;;22.20;62.80;;;;;;5071004;28;20032;-71
2022/05/10 03:21:26;;;;;;;7.85;1.40;;;22.40;62.80;;;;;;5058682;28;20474;-71
2022/05/10 03:23:54;;;;;;;8.88;1.95;;;22.50;62.60;;;;;;5070086;28;20482;-72
2022/05/10 03:26:27;;;;;;;8.25;1.35;;;22.20;62.80;;;;;;5070513;28;20032;-71
2022/05/10 03:28:56;;;;;;;7.40;1.42;;;22.00;63.40;;;;;;5074230;28;20463;-72
2022/05/10 03:31:25;;;;;;;7.65;1.60;;;21.70;64.20;;;;;;5073725;28;20071;-71
2022/05/10 03:36:39;;;;;;;5.65;1.10;;;21.60;65.20;;;;;;5062771;28;20035;-71
2022/05/10 03:39:08;;;;;;;6.28;1.20;;;21.60;65.30;;;;;;5068716;28;20062;-71
2022/05/10 03:41:35;;;;;;;7.13;1.20;;;21.70;65.40;;;;;;5073621;28;20089;-71
2022/05/10 03:44:02;;;;;;;7.55;1.20;;;21.70;65.10;;;;;;5074008;28;20024;-72
2022/05/10 03:46:30;;;;;;;6.05;1.60;;;21.70;64.90;;;;;;5069822;28;20054;-71
2022/05/10 03:48:58;;;;;;;5.82;1.80;;;21.70;66.00;;;;;;5060735;28;20021;-72
2022/05/10 03:51:25;;;;;;;13.50;1.48;;;21.60;66.10;;;;;;5062390;28;20136;-72
2022/05/10 03:53:55;;;;;;;7.63;1.58;;;21.40;69.70;;;;;;5062296;28;20028;-72
2022/05/10 03:56:26;;;;;;;7.57;1.95;;;21.10;70.80;;;;;;5073414;28;20028;-72
2022/05/10 03:58:57;;;;;;;9.63;1.63;;;20.70;69.50;;;;;;5073617;28;20021;-72
2022/05/10 04:01:24;;;;;;;10.20;1.48;;;20.50;69.40;;;;;;5063669;28;20401;-72
2022/05/10 04:03:51;;;;;;;6.45;1.70;;;20.40;68.80;;;;;;5073171;28;20483;-71
2022/05/10 04:06:19;;;;;;;10.00;1.23;;;20.40;69.00;;;;;;5055507;28;20406;-71
2022/05/10 04:08:47;;;;;;;9.38;1.10;;;20.40;68.90;;;;;;5066753;28;20147;-71
2022/05/10 04:11:15;;;;;;;7.50;1.27;;;20.50;69.00;;;;;;5061434;28;20135;-71
2022/05/10 04:13:43;;;;;;;4.80;0.95;;;20.60;69.00;;;;;;5072346;28;20024;-70
2022/05/10 04:16:11;;;;;;;9.68;1.08;;;20.70;68.90;;;;;;5069166;28;20116;-71
2022/05/10 04:18:38;;;;;;;8.00;1.65;;;20.80;68.70;;;;;;5056517;28;20025;-71
2022/05/10 04:21:06;;;;;;;11.07;2.00;;;20.90;69.00;;;;;;5060898;28;20032;-71
2022/05/10 04:23:34;;;;;;;11.52;1.92;;;21.00;69.10;;;;;;5072907;28;20043;-71
2022/05/10 04:26:10;;;;;;;11.25;1.60;;;21.00;69.20;;;;;;5068747;28;20100;-71
2022/05/10 04:28:38;;;;;;;8.73;1.67;;;21.00;69.30;;;;;;5072937;28;20025;-71
2022/05/10 04:31:06;;;;;;;9.52;1.88;;;20.90;70.30;;;;;;5071726;28;20081;-70
2022/05/10 04:33:34;;;;;;;7.90;1.40;;;20.80;70.30;;;;;;5069585;28;20199;-70
2022/05/10 04:36:01;;;;;;;8.90;1.42;;;20.80;70.60;;;;;;5064607;28;20479;-71
2022/05/10 04:38:29;;;;;;;6.63;1.50;;;20.70;70.70;;;;;;5061537;28;20039;-70
2022/05/10 04:43:42;;;;;;;12.95;1.20;;;20.70;70.10;;;;;;5067082;28;20554;-70
2022/05/10 04:46:10;;;;;;;9.18;1.25;;;20.90;68.60;;;;;;5072493;28;20025;-71
2022/05/10 04:48:37;;;;;;;9.65;1.38;;;21.30;66.40;;;;;;5064076;28;20036;-71
2022/05/10 04:51:05;;;;;;;10.88;1.55;;;21.60;63.30;;;;;;5068792;28;20044;-71
2022/05/10 04:53:34;;;;;;;7.55;0.98;;;21.70;62.80;;;;;;5071502;28;20039;-71
2022/05/10 04:56:03;;;;;;;8.48;1.33;;;21.60;63.50;;;;;;5069588;28;20040;-72
2022/05/10 04:58:31;;;;;;;12.32;1.45;;;21.40;64.90;;;;;;5064716;28;20020;-73
2022/05/10 05:01:04;;;;;;;6.97;1.20;;;21.40;65.20;;;;;;5070397;28;20439;-70
2022/05/10 05:03:32;;;;;;;5.10;1.35;;;21.30;66.10;;;;;;5063091;28;20021;-71
2022/05/10 05:06:00;;;;;;;7.00;1.10;;;21.50;66.00;;;;;;5059896;28;20390;-72
2022/05/10 05:08:27;;;;;;;10.05;1.02;;;21.30;66.50;;;;;;5067316;28;20489;-72
2022/05/10 05:10:58;;;;;;;12.65;1.60;;;21.30;66.80;;;;;;5069424;28;20044;-72
2022/05/10 05:13:26;;;;;;;6.78;1.10;;;21.20;67.00;;;;;;5071454;28;20045;-70
2022/05/10 05:15:54;;;;;;;7.53;1.25;;;21.20;66.90;;;;;;5080311;28;20502;-71
2022/05/10 05:18:21;;;;;;;4.30;1.30;;;21.20;65.70;;;;;;5071506;28;20055;-72
2022/05/10 05:20:50;;;;;;;6.75;0.70;;;21.30;64.50;;;;;;5063131;28;20063;-71
2022/05/10 05:23:20;;;;;;;5.60;1.10;;;21.20;64.50;;;;;;5066818;28;20090;-72
2022/05/10 05:25:47;;;;;;;10.57;1.45;;;21.20;65.00;;;;;;5069126;28;20035;-71
2022/05/10 05:28:15;;;;;;;7.32;1.35;;;21.30;65.20;;;;;;5070594;28;20024;-72
2022/05/10 05:30:44;;;;;;;9.00;1.63;;;21.50;64.90;;;;;;5072087;28;20123;-71
2022/05/10 05:33:13;;;;;;;6.90;1.20;;;22.00;63.40;;;;;;5066606;28;20052;-72
2022/05/10 05:35:41;;;;;;;7.78;1.75;;;22.40;63.10;;;;;;5062796;28;20024;-71
2022/05/10 05:38:09;;;;;;;5.57;0.93;;;22.20;60.60;;;;;;5060944;28;20163;-71
2022/05/10 05:40:38;;;;;;;5.20;1.10;;;22.00;62.00;;;;;;5059229;28;20033;-70
2022/05/10 05:43:06;;;;;;;9.75;1.25;;;21.90;61.80;;;;;;5060152;28;20025;-71
2022/05/10 05:45:33;;;;;;;8.68;1.30;;;21.80;62.70;;;;;;5069568;28;20123;-72
2022/05/10 05:48:01;;;;;;;7.72;1.23;;;21.60;62.80;;;;;;5071938;28;20070;-71
2022/05/10 05:50:30;;;;;;;9.43;1.50;;;21.30;63.90;;;;;;5066308;28;20025;-71
2022/05/10 05:52:58;;;;;;;8.50;1.58;;;20.80;64.70;;;;;;5059810;28;20036;-71
2022/05/10 05:55:26;;;;;;;8.70;1.10;;;20.50;65.70;;;;;;5071797;28;20055;-70
2022/05/10 05:57:53;;;;;;;10.63;1.52;;;20.30;66.60;;;;;;5066562;28;20089;-70
2022/05/10 06:00:23;;;;;;;3.40;0.80;;;20.20;67.60;;;;;;5071832;28;20509;-72
2022/05/10 06:02:51;;;;;;;6.85;1.27;;;20.00;67.80;;;;;;5064506;28;20025;-70
2022/05/10 06:05:21;;;;;;;5.75;1.30;;;19.80;68.20;;;;;;5063449;28;20029;-68
2022/05/10 06:07:48;;;;;;;5.53;1.23;;;19.70;68.70;;;;;;5072146;28;20105;-70
2022/05/10 06:10:16;;;;;;;7.35;1.08;;;19.60;69.40;;;;;;5063826;28;20033;-70
2022/05/10 06:12:43;;;;;;;10.13;1.65;;;19.60;69.60;;;;;;5066451;28;20032;-70
2022/05/10 06:15:14;;;;;;;5.72;0.98;;;19.60;70.20;;;;;;5071515;28;20033;-69
2022/05/10 06:17:43;;;;;;;5.82;0.75;;;19.60;70.20;;;;;;5056448;28;20391;-69
2022/05/10 06:20:13;;;;;;;7.22;1.60;;;19.50;70.40;;;;;;5070541;28;20028;-69
2022/05/10 06:22:44;;;;;;;10.13;1.27;;;19.50;70.00;;;;;;5063438;28;20463;-71
2022/05/10 06:25:17;;;;;;;10.57;1.58;;;19.40;70.70;;;;;;5065068;28;20441;-70
2022/05/10 06:27:49;;;;;;;12.82;1.52;;;19.30;69.50;;;;;;5072994;28;20035;-70
2022/05/10 06:30:16;;;;;;;6.15;0.85;;;19.40;69.80;;;;;;5074824;28;20497;-71
2022/05/10 06:32:44;;;;;;;4.38;0.95;;;19.40;69.20;;;;;;5074590;28;21337;-70
2022/05/10 06:35:16;;;;;;;4.75;0.88;;;19.30;69.50;;;;;;5070291;28;20017;-70
2022/05/10 06:40:29;;;;;;;6.85;1.10;;;19.10;70.70;;;;;;5070822;28;20066;-71
2022/05/10 06:42:59;;;;;;;12.38;1.23;;;19.00;71.50;;;;;;5070660;28;20056;-70
2022/05/10 06:45:27;;;;;;;9.50;1.20;;;18.90;71.80;;;;;;5067344;28;20419;-69
2022/05/10 06:47:54;;;;;;;9.90;1.40;;;18.80;72.20;;;;;;5075110;28;20028;-71
2022/05/10 06:50:23;;;;;;;4.78;1.17;;;18.90;72.40;;;;;;5074047;28;20040;-72
2022/05/10 06:52:54;;;;;;;5.70;1.20;;;18.90;72.50;;;;;;5071168;28;20028;-70
2022/05/10 06:55:23;;;;;;;7.75;1.20;;;18.80;72.30;;;;;;5071043;28;20128;-70
2022/05/10 06:57:51;;;;;;;6.88;1.13;;;18.70;72.90;;;;;;5070729;28;20108;-72
2022/05/10 07:00:20;;;;;;;9.35;1.02;;;18.60;73.30;;;;;;5064677;28;20033;-70
2022/05/10 07:02:47;;;;;;;7.63;1.55;;;18.50;73.40;;;;;;5062224;28;20028;-72
2022/05/10 07:05:17;;;;;;;5.45;1.05;;;18.40;73.30;;;;;;5068475;28;20036;-71
2022/05/10 07:07:45;;;;;;;8.88;1.02;;;18.30;73.60;;;;;;5056685;28;20491;-72
2022/05/10 07:10:13;;;;;;;10.25;1.15;;;18.20;73.90;;;;;;5066578;28;20490;-71
2022/05/10 07:12:43;;;;;;;6.38;1.15;;;18.10;74.10;;;;;;5070278;28;20062;-72
2022/05/10 07:15:16;;;;;;;6.25;1.25;;;18.10;74.30;;;;;;5066992;28;20056;-71
2022/05/10 07:17:43;;;;;;;9.07;1.58;;;18.10;73.80;;;;;;5067749;28;20071;-72
2022/05/10 07:20:13;;;;;;;4.45;1.48;;;18.10;73.80;;;;;;5063003;28;20037;-71
2022/05/10 07:22:41;;;;;;;6.47;1.73;;;18.00;74.00;;;;;;5066710;28;20016;-72
2022/05/10 07:25:11;;;;;;;9.95;1.50;;;18.00;74.00;;;;;;5069269;28;20394;-72
2022/05/10 07:27:39;;;;;;;7.78;0.73;;;17.90;74.20;;;;;;5067149;28;20486;-72
2022/05/10 07:30:07;;;;;;;7.90;1.00;;;17.90;74.30;;;;;;5070677;28;20048;-73
2022/05/10 07:32:34;;;;;;;7.07;1.13;;;17.80;74.40;;;;;;5073352;28;20499;-72
2022/05/10 07:35:02;;;;;;;10.85;1.67;;;17.80;74.60;;;;;;5061100;28;20048;-72
2022/05/10 07:37:30;;;;;;;7.30;1.58;;;17.70;74.90;;;;;;5073204;28;20029;-71
2022/05/10 07:39:58;;;;;;;5.78;0.77;;;17.70;74.90;;;;;;5060798;28;20068;-72
2022/05/10 07:42:25;;;;;;;4.97;0.98;;;17.60;74.80;;;;;;5060232;28;20020;-71
2022/05/10 07:44:53;;;;;;;11.77;1.27;;;17.60;74.80;;;;;;5064036;28;20075;-72
2022/05/10 07:47:20;;;;;;;7.05;1.10;;;17.50;75.20;;;;;;5073847;28;20070;-73
2022/05/10 07:49:47;;;;;;;7.05;1.15;;;17.50;75.20;;;;;;5066945;28;20029;-72
2022/05/10 07:52:15;;;;;;;8.68;1.35;;;17.30;75.60;;;;;;5073444;28;20169;-72
2022/05/10 07:54:43;;;;;;;11.32;1.55;;;17.20;75.90;;;;;;5072025;28;20077;-72
2022/05/10 07:57:10;;;;;;;8.50;1.27;;;17.20;76.10;;;;;;5073445;28;20041;-72
2022/05/10 07:59:38;;;;;;;7.50;1.70;;;17.20;76.10;;;;;;5065554;28;20032;-72
2022/05/10 08:02:07;;;;;;;10.05;1.30;;;17.00;76.60;;;;;;5073611;28;20046;-72
2022/05/10 08:04:35;;;;;;;11.52;1.13;;;17.00;76.40;;;;;;5066907;28;20029;-71
2022/05/10 08:07:03;;;;;;;10.50;1.45;;;16.90;76.70;;;;;;5062420;28;20504;-71
2022/05/10 08:09:30;;;;;;;7.15;1.30;;;16.80;77.30;;;;;;5072363;28;20035;-71
2022/05/10 08:11:58;;;;;;;8.32;1.48;;;16.80;77.40;;;;;;5062589;28;20041;-73
2022/05/10 08:14:25;;;;;;;6.32;1.20;;;16.70;77.70;;;;;;5067442;28;20036;-72
2022/05/10 08:16:55;;;;;;;7.07;1.20;;;16.60;78.10;;;;;;5065744;28;20033;-72
2022/05/10 08:19:22;;;;;;;12.85;1.50;;;16.60;78.20;;;;;;5072099;28;20100;-72
2022/05/10 08:21:52;;;;;;;7.78;1.13;;;16.50;78.30;;;;;;5062644;28;20029;-71
2022/05/10 08:24:20;;;;;;;6.30;1.02;;;16.40;78.70;;;;;;5063016;28;20116;-72
2022/05/10 08:26:47;;;;;;;4.72;1.00;;;16.40;79.10;;;;;;5071761;28;20036;-72
2022/05/10 08:29:14;;;;;;;5.45;1.58;;;16.30;79.40;;;;;;5072715;28;20111;-71
2022/05/10 08:31:42;;;;;;;4.70;1.30;;;16.10;80.10;;;;;;5071478;28;20045;-71
2022/05/10 08:34:09;;;;;;;9.30;1.67;;;16.00;80.90;;;;;;5070586;28;20033;-72
2022/05/10 08:36:36;;;;;;;8.82;1.67;;;15.90;81.30;;;;;;5059167;28;20119;-73
2022/05/10 08:39:04;;;;;;;4.43;1.17;;;15.80;81.50;;;;;;5072891;28;20086;-72
2022/05/10 08:41:52;;;;;;;6.18;1.42;;;15.70;81.90;;;;;;5060468;28;20486;-72
2022/05/10 08:44:25;;;;;;;7.83;1.10;;;15.60;82.50;;;;;;5064808;28;20029;-72
2022/05/10 08:47:00;;;;;;;9.90;1.80;;;15.50;83.20;;;;;;5072646;28;20033;-72
2022/05/10 08:49:46;;;;;;;10.63;2.75;;;15.50;83.40;;;;;;5066118;28;20029;-72
2022/05/10 08:52:16;;;;;;;4.82;1.20;;;15.40;83.70;;;;;;5068277;28;20062;-71
2022/05/10 08:54:44;;;;;;;10.50;1.63;;;15.30;84.30;;;;;;5066954;28;20029;-72
2022/05/10 08:57:20;;;;;;;7.28;3.47;;;15.20;84.90;;;;;;5057273;28;20525;-71
2022/05/10 09:00:05;;;;;;;8.68;1.95;;;15.10;85.30;;;;;;5056550;28;20024;-72
2022/05/10 09:02:46;;;;;;;4.78;1.20;;;15.00;86.10;;;;;;5068126;28;20490;-71
2022/05/10 09:05:40;;;;;;;8.60;2.72;;;15.00;85.80;;;;;;5060323;28;20032;-71
2022/05/10 09:08:08;;;;;;;8.68;2.40;;;14.90;86.10;;;;;;5070427;28;20059;-71
2022/05/10 09:10:58;;;;;;;10.63;1.98;;;14.70;87.00;;;;;;5072152;28;20612;-70
2022/05/10 09:13:25;;;;;;;8.65;1.77;;;14.70;88.00;;;;;;5072344;28;20048;-71
2022/05/10 09:15:55;;;;;;;7.35;1.70;;;14.60;87.80;;;;;;5068960;28;20032;-70
2022/05/10 09:18:24;;;;;;;8.02;1.75;;;14.60;88.00;;;;;;5063817;28;20063;-71
2022/05/10 09:21:14;;;;;;;7.05;1.38;;;14.60;87.80;;;;;;5062537;28;20100;-72
2022/05/10 09:24:11;;;;;;;6.93;1.67;;;14.60;87.80;;;;;;5059574;28;20033;-72
2022/05/10 09:26:43;;;;;;;8.80;3.08;;;14.60;87.50;;;;;;5067033;28;20025;-71
2022/05/10 09:29:38;;;;;;;21.70;5.72;;;14.60;87.50;;;;;;5068077;28;20039;-70
2022/05/10 09:35:22;;;;;;;14.85;4.78;;;14.40;87.90;;;;;;5057338;28;20081;-71
2022/05/10 09:37:49;;;;;;;12.98;4.60;;;14.30;88.70;;;;;;5069797;28;20067;-70
2022/05/10 09:40:19;;;;;;;;;;;14.30;89.00;;;;;;5076608;28;20064;-70
2022/05/10 09:42:49;;;;;;;12.85;2.35;;;14.20;89.10;;;;;;5063859;28;20001;-71
2022/05/10 09:45:23;;;;;;;8.02;2.28;;;14.10;89.50;;;;;;5076000;28;20063;-71
2022/05/10 09:48:08;;;;;;;8.07;2.15;;;14.10;89.50;;;;;;5072071;28;20107;-73
2022/05/10 09:50:41;;;;;;;6.90;1.52;;;14.20;89.40;;;;;;5064873;28;20046;-71
2022/05/10 09:53:20;;;;;;;6.72;1.92;;;14.20;89.10;;;;;;5066102;28;20482;-71
2022/05/10 09:56:02;;;;;;;9.20;2.67;;;14.20;89.10;;;;;;5071834;28;20112;-72
2022/05/10 09:58:44;;;;;;;10.57;5.10;;;14.20;88.70;;;;;;5069141;28;20078;-71
2022/05/10 10:01:13;;;;;;;10.68;3.78;;;14.30;88.40;;;;;;5065597;28;20115;-71
2022/05/10 10:03:45;;;;;;;10.60;2.53;;;14.20;88.60;;;;;;5073211;28;20056;-72
2022/05/10 10:06:21;;;;;;;10.07;2.05;;;14.20;88.70;;;;;;5061640;28;20032;-72
2022/05/10 10:08:50;;;;;;;7.28;1.92;;;14.20;88.70;;;;;;5066614;28;20485;-72
2022/05/10 10:11:32;;;;;;;12.70;1.83;;;14.20;88.80;;;;;;5074774;28;20393;-72
2022/05/10 10:14:06;;;;;;;9.05;1.73;;;14.10;88.80;;;;;;5063639;28;20024;-73
2022/05/10 10:16:45;;;;;;;6.07;2.28;;;14.10;89.00;;;;;;5075736;28;20056;-72
2022/05/10 10:19:40;;;;;;;9.18;2.20;;;14.20;87.90;;;;;;5074369;28;20020;-72
2022/05/10 10:22:15;;;;;;;9.45;2.15;;;14.30;87.80;;;;;;5068933;28;20029;-72
2022/05/10 10:25:04;;;;;;;6.47;1.83;;;14.30;87.50;;;;;;5074973;28;20032;-71
2022/05/10 10:27:44;;;;;;;8.63;2.42;;;14.30;87.20;;;;;;5068362;28;20024;-71
2022/05/10 10:30:22;;;;;;;12.70;2.22;;;14.20;87.50;;;;;;5075167;28;20405;-71
2022/05/10 10:33:11;;;;;;;14.13;3.35;;;14.20;87.20;;;;;;5062950;28;20040;-72
2022/05/10 10:36:13;;;;;;;7.25;1.88;;;14.20;87.20;;;;;;5072972;28;20454;-70
2022/05/10 10:39:05;;;;;;;9.02;2.35;;;14.20;87.50;;;;;;5061666;28;20033;-72
2022/05/10 10:41:42;;;;;;;12.50;2.10;;;14.10;87.20;;;;;;5070338;28;20028;-72
2022/05/10 10:44:23;;;;;;;9.43;2.10;;;14.10;87.70;;;;;;5068277;28;20039;-73
2022/05/10 10:47:09;;;;;;;13.35;2.67;;;14.00;88.00;;;;;;5074479;28;20078;-72
2022/05/10 10:50:19;;;;;;;5.82;1.92;;;13.90;88.10;;;;;;5074999;28;20024;-72
2022/05/10 10:52:46;;;;;;;8.20;1.80;;;13.80;88.60;;;;;;5061984;28;20483;-72
2022/05/10 10:55:18;;;;;;;10.02;2.00;;;13.60;88.80;;;;;;5069391;28;20041;-72
2022/05/10 10:58:09;;;;;;;10.95;2.28;;;13.50;90.00;;;;;;5072412;28;20112;-71
2022/05/10 11:00:51;;;;;;;7.53;2.17;;;13.50;90.10;;;;;;5074651;28;20078;-72
2022/05/10 11:03:50;;;;;;;13.07;2.38;;;13.40;90.10;;;;;;5063970;28;20108;-72
2022/05/10 11:06:27;;;;;;;7.82;2.30;;;13.40;90.20;;;;;;5062755;28;20025;-72
2022/05/10 11:09:32;;;;;;;9.05;1.75;;;13.30;90.10;;;;;;5068163;28;20620;-72
2022/05/10 11:12:25;;;;;;;10.10;2.35;;;13.40;90.60;;;;;;5069314;28;20036;-73
2022/05/10 11:14:55;;;;;;;9.40;1.92;;;13.30;90.50;;;;;;5057985;28;20032;-71
2022/05/10 11:17:49;;;;;;;4.15;1.77;;;13.40;90.60;;;;;;5074617;28;20036;-71
2022/05/10 11:20:58;;;;;;;6.97;2.35;;;13.40;90.40;;;;;;5067852;28;20383;-71
2022/05/10 11:24:07;;;;;;;9.70;2.35;;;13.40;90.40;;;;;;5056007;28;20037;-70
2022/05/10 11:27:11;;;;;;;8.45;1.70;;;13.40;90.50;;;;;;5046498;28;20037;-71
2022/05/10 11:30:00;;;;;;;7.45;2.25;;;13.50;90.40;;;;;;5072974;28;20020;-71
2022/05/10 11:33:03;;;;;;;8.63;1.83;;;13.70;90.10;;;;;;5060888;28;20146;-71
2022/05/10 11:35:39;;;;;;;5.65;1.83;;;13.80;89.30;;;;;;5074217;28;20047;-71
2022/05/10 11:38:29;;;;;;;5.50;2.40;;;14.00;88.40;;;;;;5071965;28;20024;-70
2022/05/10 11:41:21;;;;;;;6.95;2.10;;;14.20;87.60;;;;;;5063103;28;20020;-71
2022/05/10 11:44:12;;;;;;;8.35;1.70;;;14.30;87.40;;;;;;5060473;28;20104;-71
2022/05/10 11:47:17;;;;;;;7.78;2.28;;;14.30;87.00;;;;;;5070683;28;20024;-71
2022/05/10 11:50:06;;;;;;;7.90;2.83;;;14.40;86.40;;;;;;5068205;28;20487;-71
2022/05/10 11:52:52;;;;;;;14.15;3.05;;;14.50;86.80;;;;;;5065041;28;20495;-70
2022/05/10 11:55:37;;;;;;;10.50;2.25;;;14.50;86.60;;;;;;5071929;28;20064;-71
2022/05/10 11:58:08;;;;;;;10.13;2.38;;;14.70;85.90;;;;;;5073561;28;20035;-70
2022/05/10 12:00:35;;;;;;;9.55;2.35;;;14.80;85.40;;;;;;5073184;28;20020;-71
2022/05/10 12:03:06;;;;;;;5.00;1.98;;;14.90;84.70;;;;;;5062482;28;20036;-70
2022/05/10 12:05:34;;;;;;;10.40;2.63;;;14.90;84.30;;;;;;5068961;28;20047;-71
2022/05/10 12:08:21;;;;;;;7.00;1.88;;;15.00;84.00;;;;;;5058786;28;20033;-71
2022/05/10 12:10:49;;;;;;;10.77;2.42;;;15.10;83.70;;;;;;5058719;28;20040;-70
2022/05/10 12:22:20;;;;;;;10.38;2.08;;;15.10;83.40;;;;;;5066434;28;20100;-71
2022/05/10 12:24:50;;;;;;;7.60;1.70;;;15.10;83.70;;;;;;5072737;28;20033;-71
2022/05/10 12:27:17;;;;;;;10.20;2.45;;;15.10;83.90;;;;;;5073113;28;20560;-71
2022/05/10 12:29:48;;;;;;;11.00;2.20;;;15.00;84.30;;;;;;5068123;28;20119;-71
2022/05/10 12:32:36;;;;;;;7.40;2.38;;;15.10;84.00;;;;;;5070068;28;20053;-71
2022/05/10 12:35:04;;;;;;;;;;;15.10;83.90;;;;;;5065751;28;20012;-71
2022/05/10 12:37:35;;;;;;;6.70;2.38;;;15.10;83.80;;;;;;5073009;28;20002;-70
2022/05/10 12:40:12;;;;;;;9.18;2.15;;;15.10;84.00;;;;;;5059576;28;20391;-70
2022/05/10 12:43:03;;;;;;;15.52;2.28;;;15.10;84.10;;;;;;5066892;28;20108;-69
2022/05/10 12:45:56;;;;;;;7.18;1.60;;;15.00;84.30;;;;;;5069349;28;20017;-69
2022/05/10 12:48:48;;;;;;;9.93;1.98;;;15.00;84.80;;;;;;5068290;28;20029;-70
2022/05/10 12:51:32;;;;;;;6.10;1.70;;;15.10;84.70;;;;;;5072603;28;20112;-71
2022/05/10 12:54:27;;;;;;;11.57;1.75;;;15.00;84.50;;;;;;5063223;28;20055;-71
2022/05/10 12:57:32;;;;;;;6.43;1.88;;;15.10;84.60;;;;;;5062364;28;20093;-70
2022/05/10 13:00:07;;;;;;;13.52;2.05;;;15.10;84.80;;;;;;5070081;28;20033;-70
2022/05/10 13:02:39;;;;;;;9.13;1.77;;;15.10;84.60;;;;;;5072773;28;20032;-70
2022/05/10 13:05:13;;;;;;;9.85;2.05;;;15.10;84.90;;;;;;5068363;28;20036;-70
2022/05/10 13:07:50;;;;;;;10.10;1.80;;;15.10;85.00;;;;;;5064272;28;20032;-70
2022/05/10 13:10:22;;;;;;;8.13;2.08;;;15.10;85.40;;;;;;5071858;28;20028;-69
2022/05/10 13:13:02;;;;;;;5.35;1.80;;;15.00;85.40;;;;;;5065302;28;20028;-70
2022/05/10 13:15:30;;;;;;;9.05;1.60;;;15.00;85.60;;;;;;5058946;28;20029;-70
2022/05/10 13:17:59;;;;;;;11.27;3.30;;;15.00;86.20;;;;;;5060367;28;20035;-69
2022/05/10 13:20:32;;;;;;;10.73;2.95;;;15.10;86.10;;;;;;5072382;28;20028;-70
2022/05/10 13:23:04;;;;;;;13.00;2.92;;;15.10;85.60;;;;;;5072184;28;20394;-70
2022/05/10 13:25:35;;;;;;;12.63;3.25;;;15.20;85.50;;;;;;5072056;28;20017;-70
2022/05/10 13:28:21;;;;;;;15.73;3.20;;;15.20;85.50;;;;;;5059919;28;20032;-71
2022/05/10 13:30:52;;;;;;;14.43;3.78;;;15.20;85.40;;;;;;5065644;28;20075;-71
2022/05/10 13:33:35;;;;;;;6.90;2.50;;;15.20;86.10;;;;;;5067519;28;20028;-70
2022/05/10 13:36:07;;;;;;;8.75;2.33;;;15.20;85.00;;;;;;5054932;28;20033;-70
2022/05/10 13:38:55;;;;;;;10.95;2.97;;;15.20;85.10;;;;;;5068609;28;20071;-70
2022/05/10 13:41:38;;;;;;;9.25;2.63;;;15.20;85.10;;;;;;5072056;28;20029;-69
2022/05/10 13:44:15;;;;;;;11.65;2.78;;;15.20;85.20;;;;;;5072096;28;20443;-69
2022/05/10 13:46:53;;;;;;;12.00;3.40;;;15.20;85.80;;;;;;5062998;28;20061;-69
2022/05/10 13:49:28;;;;;;;9.50;2.47;;;15.20;86.20;;;;;;5052149;28;20033;-69
2022/05/10 13:52:03;;;;;;;12.27;2.75;;;15.20;86.70;;;;;;5071835;28;20511;-69